Weather History for Woensdrecht, Netherlands

Change the Weather History Date:

Saturday, January 5, 2013

  Actual Average Record
Temperature  
Mean Temperature 45 °F -  
Max Temperature 46 °F 41 °F 57 °F (1999)
Min Temperature 44 °F 33 °F 17 °F (2003)
Degree Days  
Heating Degree Days 20    
Moisture  
Dew Point 45 °F    
Average Humidity 97    
Maximum Humidity 100    
Minimum Humidity 93    
Precipitation  
Precipitation 0.00 in - - ()
Sea Level Pressure  
Sea Level Pressure 30.54 in    
Wind  
Wind Speed 6 mph ()    
Max Wind Speed 10 mph    
Max Gust Speed -    
Visibility 3.5 miles    
Events Rain    
Averages and records for this station are not official NWS values.
T = Trace of Precipitation, MM = Missing Value Source: Averaged Metar Reports

Daily Weather History Graph

Daily Weather History Graph

Search for Another Location

Airport:

Trip Planner

Search our weather history database for the weather conditions in past years. The results will help you decide how hot, cold, wet, or windy it might be!

Date:

Astronomy

Jan. 05, 2013 Rise Set
Actual Time 8:47 AM CET 4:49 PM CET
Civil Twilight 8:07 AM CET 5:28 PM CET
Nautical Twilight 7:24 AM CET 6:11 PM CET
Astronomical Twilight 6:44 AM CET 6:51 PM CET
Moon 1:08 AM CET (1/5) 11:54 AM CET (1/5)
Length of Visible Light 9h 21m
Length of Day
8h 02m
Waning Gibbous, 47% of the Moon is Illuminated
Jan 5
Waning Gibbous
Jan 11
New
Jan 19
First Quarter
Jan 27
Full
Feb 3
Last Quarter

Hourly Weather History & Observations

Time (CET) Temp. Windchill Dew Point Humidity Pressure Visibility Wind Dir Wind Speed Gust Speed Precip Events Conditions
12:25 AM 46.4 °F 41.9 °F 44.6 °F 93% 30.57 in 6.2 mi West 9.2 mph - N/A   Overcast
12:55 AM 46.4 °F 42.4 °F 44.6 °F 93% 30.54 in 6.2 mi West 8.1 mph - N/A   Overcast
1:25 AM 46.4 °F 42.9 °F 44.6 °F 93% 30.57 in 6.2 mi West 6.9 mph - N/A   Overcast
1:55 AM 46.4 °F 42.4 °F 44.6 °F 93% 30.54 in 6.2 mi West 8.1 mph - N/A   Overcast
2:25 AM 46.4 °F 44.3 °F 44.6 °F 93% 30.57 in 6.2 mi WSW 4.6 mph - N/A   Overcast
2:55 AM 46.4 °F 43.5 °F 44.6 °F 93% 30.57 in 5.6 mi WSW 5.8 mph - N/A   Mostly Cloudy
3:08 AM 46.4 °F 44.3 °F 44.6 °F 93% 30.57 in 5.0 mi WSW 4.6 mph - N/A   Overcast
3:09 AM 46.4 °F 45.2 °F 44.6 °F 93% 30.57 in 5.0 mi WSW 3.5 mph - N/A   Overcast
3:25 AM 46.4 °F 44.3 °F 46.4 °F 100% 30.57 in 5.0 mi WSW 4.6 mph - N/A   Overcast
3:55 AM 46.4 °F 43.5 °F 44.6 °F 93% 30.57 in 4.3 mi West 5.8 mph - N/A   Overcast
4:21 AM 46.4 °F 42.9 °F 46.4 °F 100% 30.54 in 3.7 mi West 6.9 mph - N/A   Overcast
4:25 AM 46.4 °F 42.9 °F 46.4 °F 100% 30.54 in 3.7 mi West 6.9 mph - N/A   Overcast
4:29 AM 46.4 °F 43.5 °F 46.4 °F 100% 30.54 in 3.7 mi WSW 5.8 mph - N/A   Overcast
4:30 AM 46.4 °F 42.9 °F 46.4 °F 100% 30.54 in 3.7 mi WSW 6.9 mph - N/A   Overcast
4:45 AM 46.4 °F 42.4 °F 46.4 °F 100% 30.54 in 3.7 mi West 8.1 mph - N/A   Mostly Cloudy
4:55 AM 46.4 °F 42.9 °F 46.4 °F 100% 30.54 in 3.7 mi West 6.9 mph - N/A   Overcast
5:02 AM 46.4 °F 42.9 °F 46.4 °F 100% 30.54 in 3.1 mi West 6.9 mph - N/A   Overcast
5:25 AM 46.4 °F 42.9 °F 46.4 °F 100% 30.54 in 3.7 mi West 6.9 mph - N/A   Overcast
5:26 AM 46.4 °F 43.5 °F 46.4 °F 100% 30.54 in 3.7 mi West 5.8 mph - N/A   Overcast
5:36 AM 46.4 °F 42.9 °F 46.4 °F 100% 30.54 in 3.7 mi West 6.9 mph - N/A   Overcast
5:41 AM 46.4 °F 42.4 °F 46.4 °F 100% 30.54 in 3.7 mi West 8.1 mph - N/A   Overcast
5:55 AM 46.4 °F 42.4 °F 46.4 °F 100% 30.54 in 3.7 mi West 8.1 mph - N/A   Overcast
6:25 AM 46.4 °F 42.4 °F 46.4 °F 100% 30.54 in 5.0 mi WNW 8.1 mph - N/A   Overcast
6:36 AM 46.4 °F 43.5 °F 46.4 °F 100% 30.54 in 5.6 mi West 5.8 mph - N/A   Overcast
6:55 AM 46.4 °F 43.5 °F 46.4 °F 100% 30.54 in 5.0 mi WNW 5.8 mph - N/A   Overcast
7:03 AM 46.4 °F 43.5 °F 46.4 °F 100% 30.54 in 4.3 mi WNW 5.8 mph - N/A   Overcast
7:25 AM 46.4 °F 43.5 °F 44.6 °F 93% 30.54 in 3.7 mi West 5.8 mph - N/A   Overcast
7:27 AM 46.4 °F 43.5 °F 44.6 °F 93% 30.54 in - West 5.8 mph - N/A   Overcast
7:40 AM 46.4 °F 44.3 °F 46.4 °F 100% 30.54 in 3.7 mi West 4.6 mph - N/A   Overcast
7:55 AM 46.4 °F 44.3 °F 44.6 °F 93% 30.54 in 4.3 mi West 4.6 mph - N/A   Overcast
8:25 AM 46.4 °F 43.5 °F 44.6 °F 93% 30.54 in 5.6 mi West 5.8 mph - N/A   Overcast
8:36 AM 46.4 °F 42.9 °F 44.6 °F 93% 30.57 in 6.2 mi West 6.9 mph - N/A   Overcast
8:55 AM 46.4 °F 43.5 °F 44.6 °F 93% 30.57 in 4.3 mi West 5.8 mph - N/A   Overcast
9:17 AM 46.4 °F 43.5 °F 44.6 °F 93% 30.57 in 5.6 mi WNW 5.8 mph - N/A   Overcast
9:25 AM 46.4 °F 43.5 °F 44.6 °F 93% 30.57 in 6.2 mi WNW 5.8 mph - N/A   Overcast
9:42 AM 46.4 °F 42.9 °F 44.6 °F 93% 30.57 in 4.3 mi West 6.9 mph - N/A   Overcast
9:55 AM 46.4 °F 42.4 °F 44.6 °F 93% 30.57 in 3.1 mi West 8.1 mph - N/A   Overcast
10:04 AM 46.4 °F 42.4 °F 44.6 °F 93% 30.57 in 3.1 mi West 8.1 mph - N/A   Mostly Cloudy
10:11 AM 46.4 °F 42.9 °F 44.6 °F 93% 30.57 in - West 6.9 mph - N/A   Mostly Cloudy
10:13 AM 46.4 °F 42.9 °F 44.6 °F 93% 30.57 in - West 6.9 mph - N/A   Mostly Cloudy
10:25 AM 46.4 °F 42.9 °F 44.6 °F 93% 30.57 in - West 6.9 mph - N/A   Overcast
10:29 AM 46.4 °F 42.9 °F 44.6 °F 93% 30.57 in - West 6.9 mph - N/A   Overcast
10:38 AM 46.4 °F 42.9 °F 44.6 °F 93% 30.57 in - West 6.9 mph - N/A   Overcast
10:51 AM 46.4 °F 44.3 °F 44.6 °F 93% 30.57 in - West 4.6 mph - N/A   Mostly Cloudy
10:55 AM 46.4 °F 43.5 °F 44.6 °F 93% 30.57 in - West 5.8 mph - N/A   Overcast
11:02 AM 46.4 °F 43.5 °F 44.6 °F 93% 30.57 in - West 5.8 mph - N/A   Overcast
11:03 AM 46.4 °F 44.3 °F 44.6 °F 93% 30.57 in - West 4.6 mph - N/A   Overcast
11:25 AM 46.4 °F 44.3 °F 46.4 °F 100% 30.57 in - West 4.6 mph - N/A   Mostly Cloudy
11:26 AM 46.4 °F 44.3 °F 46.4 °F 100% 30.57 in - West 4.6 mph - N/A   Overcast
11:55 AM 46.4 °F 42.9 °F 46.4 °F 100% 30.57 in 2.2 mi West 6.9 mph - N/A   Overcast
12:09 PM 46.4 °F 41.9 °F 46.4 °F 100% 30.57 in 3.1 mi West 9.2 mph - N/A   Overcast
12:13 PM 46.4 °F 41.9 °F 46.4 °F 100% 30.57 in - West 9.2 mph - N/A   Overcast
12:25 PM 46.4 °F 41.9 °F 46.4 °F 100% 30.57 in 3.1 mi West 9.2 mph - N/A   Overcast
12:31 PM 46.4 °F 41.9 °F 46.4 °F 100% 30.57 in - West 9.2 mph - N/A   Overcast
12:55 PM 46.4 °F 41.9 °F 44.6 °F 93% 30.57 in 5.0 mi West 9.2 mph - N/A   Overcast
1:25 PM 46.4 °F 41.5 °F 44.6 °F 93% 30.54 in 4.3 mi West 10.4 mph - N/A   Overcast
1:42 PM 46.4 °F 41.9 °F 44.6 °F 93% 30.54 in - West 9.2 mph - N/A   Overcast
1:55 PM 46.4 °F 42.4 °F 44.6 °F 93% 30.54 in - West 8.1 mph - N/A   Overcast
2:25 PM 46.4 °F 42.4 °F 44.6 °F 93% 30.54 in 1.7 mi West 8.1 mph - N/A   Drizzle
2:55 PM 46.4 °F 42.4 °F 44.6 °F 93% 30.54 in 1.8 mi West 8.1 mph - N/A   Overcast
3:25 PM 46.4 °F 42.4 °F 44.6 °F 93% 30.54 in - West 8.1 mph - N/A   Light Drizzle
3:28 PM 46.4 °F 42.9 °F 44.6 °F 93% 30.54 in - West 6.9 mph - N/A   Light Drizzle
3:55 PM 46.4 °F 42.4 °F 44.6 °F 93% 30.54 in - West 8.1 mph - N/A Rain Light Rain
4:05 PM 46.4 °F 43.5 °F 44.6 °F 93% 30.54 in - West 5.8 mph - N/A   Overcast
4:09 PM 46.4 °F 42.9 °F 44.6 °F 93% 30.54 in 5.0 mi West 6.9 mph - N/A   Overcast
4:18 PM 46.4 °F 42.9 °F 44.6 °F 93% 30.54 in 3.1 mi West 6.9 mph - N/A Rain Light Rain
4:25 PM 46.4 °F 43.5 °F 44.6 °F 93% 30.54 in - West 5.8 mph - N/A   Light Drizzle
4:27 PM 46.4 °F 43.5 °F 44.6 °F 93% 30.54 in - West 5.8 mph - N/A   Mostly Cloudy
4:39 PM 46.4 °F 43.5 °F 44.6 °F 93% 30.54 in - West 5.8 mph - N/A   Overcast
4:43 PM 46.4 °F 44.3 °F 44.6 °F 93% 30.54 in 2.5 mi West 4.6 mph - N/A Rain Light Rain
4:55 PM 46.4 °F 44.3 °F 44.6 °F 93% 30.54 in 1.9 mi West 4.6 mph - N/A   Light Drizzle
4:59 PM 46.4 °F 44.3 °F 44.6 °F 93% 30.54 in 1.7 mi West 4.6 mph - N/A   Drizzle
5:04 PM 46.4 °F 44.3 °F 44.6 °F 93% 30.54 in 1.6 mi West 4.6 mph - N/A   Overcast
5:05 PM 46.4 °F 43.5 °F 44.6 °F 93% 30.54 in 1.6 mi West 5.8 mph - N/A Rain Light Rain
5:17 PM 44.6 °F 39.7 °F 44.6 °F 100% 30.54 in - WSW 9.2 mph - N/A   Light Drizzle
5:25 PM 44.6 °F 39.7 °F 44.6 °F 100% 30.54 in - WSW 9.2 mph - N/A   Light Drizzle
5:55 PM 44.6 °F 40.7 °F 44.6 °F 100% 30.54 in - WSW 6.9 mph - N/A   Mostly Cloudy
6:08 PM 44.6 °F 41.4 °F 44.6 °F 100% 30.54 in 5.0 mi WSW 5.8 mph - N/A   Mostly Cloudy
6:25 PM 44.6 °F 40.7 °F 44.6 °F 100% 30.54 in 3.1 mi WSW 6.9 mph - N/A   Overcast
6:55 PM 44.6 °F 42.2 °F 44.6 °F 100% 30.51 in 5.0 mi SW 4.6 mph - N/A   Overcast
7:25 PM 44.6 °F - 44.6 °F 100% 30.51 in 4.3 mi SSW 2.3 mph - N/A   Overcast
7:34 PM 44.6 °F - 44.6 °F 100% 30.51 in - SW 2.3 mph - N/A   Overcast
7:42 PM 44.6 °F 43.1 °F 44.6 °F 100% 30.51 in 3.1 mi SW 3.5 mph - N/A   Overcast
7:55 PM 44.6 °F - 44.6 °F 100% 30.51 in 3.1 mi SW 2.3 mph - N/A   Overcast
7:56 PM 44.6 °F 43.1 °F 44.6 °F 100% 30.51 in 2.8 mi SW 3.5 mph - N/A   Overcast
8:08 PM 44.6 °F - 44.6 °F 100% 30.51 in - SW 2.3 mph - N/A   Overcast
8:12 PM 44.6 °F - 44.6 °F 100% 30.51 in - SW 2.3 mph - N/A   Overcast
8:15 PM 44.6 °F - 44.6 °F 100% 30.51 in - SW 2.3 mph - N/A   Mostly Cloudy
8:25 PM 44.6 °F 43.1 °F 44.6 °F 100% 30.51 in - SW 3.5 mph - N/A   Mostly Cloudy
8:55 PM 44.6 °F 41.4 °F 44.6 °F 100% 30.51 in 2.2 mi SW 5.8 mph - N/A   Overcast
8:59 PM 44.6 °F 41.4 °F 44.6 °F 100% 30.51 in - SW 5.8 mph - N/A   Overcast
9:25 PM 44.6 °F 40.7 °F 44.6 °F 100% 30.51 in 1.7 mi SW 6.9 mph - N/A   Overcast
9:35 PM 44.6 °F 40.7 °F 44.6 °F 100% 30.51 in 1.7 mi WSW 6.9 mph - N/A   Overcast
9:36 PM 44.6 °F 40.7 °F 44.6 °F 100% 30.51 in 1.6 mi SW 6.9 mph - N/A   Overcast
9:55 PM 46.4 °F 42.9 °F 44.6 °F 93% 30.51 in 1.4 mi WSW 6.9 mph - N/A   Overcast
10:07 PM 46.4 °F 43.5 °F 44.6 °F 93% 30.51 in 1.4 mi SW 5.8 mph - N/A   Mostly Cloudy
10:15 PM 46.4 °F 43.5 °F 44.6 °F 93% 30.51 in 1.4 mi SW 5.8 mph - N/A   Mostly Cloudy
10:19 PM 46.4 °F 43.5 °F 44.6 °F 93% 30.51 in 1.3 mi SW 5.8 mph - N/A   Overcast
10:25 PM 46.4 °F 42.9 °F 46.4 °F 100% 30.51 in 1.3 mi WSW 6.9 mph - N/A   Overcast
10:26 PM 46.4 °F 42.9 °F 46.4 °F 100% 30.51 in 1.4 mi WSW 6.9 mph - N/A   Overcast
10:40 PM 46.4 °F 42.9 °F 46.4 °F 100% 30.51 in 1.4 mi WSW 6.9 mph - N/A   Overcast
10:45 PM 46.4 °F 42.9 °F 46.4 °F 100% 30.51 in 1.5 mi WSW 6.9 mph - N/A   Overcast
10:55 PM 46.4 °F 42.9 °F 46.4 °F 100% 30.51 in 1.5 mi WSW 6.9 mph - N/A   Overcast
11:04 PM 46.4 °F 43.5 °F 46.4 °F 100% 30.51 in 1.5 mi WSW 5.8 mph - N/A   Overcast
11:08 PM 46.4 °F 43.5 °F 46.4 °F 100% 30.51 in 1.5 mi WSW 5.8 mph - N/A   Overcast
11:25 PM 46.4 °F 43.5 °F 46.4 °F 100% 30.51 in 1.5 mi WSW 5.8 mph - N/A   Overcast
11:29 PM 46.4 °F 43.5 °F 46.4 °F 100% 30.51 in 1.6 mi WSW 5.8 mph - N/A   Mostly Cloudy
11:55 PM 46.4 °F 42.4 °F 46.4 °F 100% 30.51 in 1.7 mi WSW 8.1 mph - N/A   Overcast